createdAt,value
2023-04-13T00:01:16.065Z,1.23
2023-04-13T00:03:43.216Z,1.00
2023-04-13T00:06:11.362Z,1.00
2023-04-13T00:08:38.702Z,1.02
2023-04-13T00:11:07.937Z,1.10
2023-04-13T00:13:41.550Z,1.17
2023-04-13T00:16:13.483Z,1.20
2023-04-13T00:18:40.600Z,1.00
2023-04-13T00:21:08.354Z,1.20
2023-04-13T00:23:38.378Z,1.10
2023-04-13T00:26:05.766Z,0.88
2023-04-13T00:28:33.332Z,1.30
2023-04-13T00:31:00.466Z,0.88
2023-04-13T00:33:27.562Z,1.05
2023-04-13T00:35:54.712Z,1.50
2023-04-13T00:38:24.260Z,0.90
2023-04-13T00:40:51.397Z,1.00
2023-04-13T00:43:18.461Z,0.82
2023-04-13T00:45:45.660Z,0.95
2023-04-13T00:48:13.723Z,0.93
2023-04-13T00:50:42.378Z,0.95
2023-04-13T00:53:13.682Z,1.00
2023-04-13T00:55:43.026Z,1.00
2023-04-13T00:58:10.372Z,1.50
2023-04-13T01:00:39.455Z,1.17
2023-04-13T01:03:07.234Z,0.82
2023-04-13T01:05:57.326Z,1.05
2023-04-13T01:08:29.782Z,0.95
2023-04-13T01:11:13.052Z,1.20
2023-04-13T01:13:48.598Z,0.77
2023-04-13T01:16:23.806Z,1.00
2023-04-13T01:18:55.080Z,0.90
2023-04-13T01:21:26.910Z,1.20
2023-04-13T01:24:21.853Z,0.93
2023-04-13T01:27:15.888Z,1.00
2023-04-13T01:29:45.541Z,1.13
2023-04-13T01:32:14.252Z,1.13
2023-04-13T01:34:41.348Z,0.95
2023-04-13T01:37:10.308Z,0.82
2023-04-13T01:39:38.769Z,0.93
2023-04-13T01:42:06.325Z,1.33
2023-04-13T01:44:35.644Z,0.90
2023-04-13T01:47:17.067Z,1.05
2023-04-13T01:49:57.745Z,1.10
2023-04-13T01:52:28.070Z,0.90
2023-04-13T01:54:56.782Z,1.15
2023-04-13T01:57:24.975Z,0.95
2023-04-13T01:59:52.107Z,1.10
2023-04-13T02:02:19.248Z,0.80
2023-04-13T02:04:46.663Z,1.27
2023-04-13T02:07:13.901Z,1.10
2023-04-13T02:09:41.686Z,0.70
2023-04-13T02:12:08.765Z,1.10
2023-04-13T02:14:35.811Z,0.88
2023-04-13T02:17:02.897Z,1.08
2023-04-13T02:19:30.218Z,1.02
2023-04-13T02:21:57.224Z,0.88
2023-04-13T02:24:24.885Z,0.90
2023-04-13T02:26:51.927Z,0.80
2023-04-13T02:29:19.062Z,0.90
2023-04-13T02:31:46.469Z,0.95
2023-04-13T02:34:13.723Z,0.95
2023-04-13T02:36:40.990Z,0.90
2023-04-13T02:39:08.815Z,0.82
2023-04-13T02:41:35.981Z,1.02
2023-04-13T02:44:03.237Z,1.15
2023-04-13T02:46:32.619Z,0.85
2023-04-13T02:49:00.781Z,0.73
2023-04-13T02:51:28.249Z,1.00
2023-04-13T02:53:57.738Z,0.65
2023-04-13T02:56:28.643Z,0.85
2023-04-13T02:58:55.812Z,0.88
2023-04-13T03:01:25.272Z,1.00
2023-04-13T03:03:52.373Z,1.10
2023-04-13T03:06:19.489Z,1.13
2023-04-13T03:08:46.730Z,0.90
2023-04-13T03:11:14.311Z,1.00
2023-04-13T03:13:41.769Z,0.95
2023-04-13T03:16:11.564Z,1.00
2023-04-13T03:18:38.777Z,0.90
2023-04-13T03:21:06.207Z,1.02
2023-04-13T03:23:33.268Z,0.88
2023-04-13T03:26:00.277Z,1.10
2023-04-13T03:28:27.429Z,0.80
2023-04-13T03:30:54.517Z,1.00
2023-04-13T03:33:21.668Z,1.00
2023-04-13T03:35:48.713Z,1.13
2023-04-13T03:38:15.912Z,2.10
2023-04-13T03:40:43.370Z,0.88
2023-04-13T03:43:10.648Z,0.70
2023-04-13T03:45:37.901Z,1.08
2023-04-13T03:48:06.322Z,1.10
2023-04-13T03:50:33.743Z,0.80
2023-04-13T03:53:01.257Z,0.95
2023-04-13T03:55:28.643Z,1.20
2023-04-13T03:57:55.942Z,0.73
2023-04-13T04:00:23.341Z,1.30
2023-04-13T04:02:50.555Z,1.13
2023-04-13T04:05:17.927Z,0.82
2023-04-13T04:07:45.010Z,1.20
2023-04-13T04:10:12.136Z,1.10
2023-04-13T04:12:39.326Z,0.88
2023-04-13T04:15:06.953Z,1.02
2023-04-13T04:17:34.014Z,0.80
2023-04-13T04:20:01.295Z,1.35
2023-04-13T04:22:30.436Z,1.20
2023-04-13T04:24:59.324Z,1.05
2023-04-13T04:27:26.724Z,1.15
2023-04-13T04:29:59.408Z,0.80
2023-04-13T04:32:26.650Z,1.40
2023-04-13T04:34:53.920Z,1.38
2023-04-13T04:37:23.740Z,1.30
2023-04-13T04:39:50.861Z,0.88
2023-04-13T04:42:19.046Z,1.25
2023-04-13T04:44:50.358Z,1.25
2023-04-13T04:47:18.806Z,0.95
2023-04-13T04:49:48.571Z,1.20
2023-04-13T04:52:15.987Z,1.20
2023-04-13T04:54:43.160Z,0.85
2023-04-13T04:57:10.766Z,1.02
2023-04-13T04:59:38.011Z,1.00
2023-04-13T05:02:05.112Z,0.80
2023-04-13T05:04:33.683Z,0.95
2023-04-13T05:07:01.144Z,1.00
2023-04-13T05:09:28.634Z,0.90
2023-04-13T05:11:56.512Z,0.77
2023-04-13T05:14:23.634Z,1.08
2023-04-13T05:16:51.500Z,1.08
2023-04-13T05:19:18.557Z,0.90
2023-04-13T05:21:45.904Z,0.80
2023-04-13T05:24:13.016Z,0.70
2023-04-13T05:26:40.195Z,0.98
2023-04-13T05:29:08.348Z,0.80
2023-04-13T05:31:35.749Z,0.98
2023-04-13T05:34:02.822Z,0.88
2023-04-13T05:36:32.104Z,0.80
2023-04-13T05:39:02.823Z,0.80
2023-04-13T05:41:30.010Z,0.77
2023-04-13T05:43:57.009Z,0.80
2023-04-13T05:46:24.184Z,1.00
2023-04-13T05:48:51.653Z,1.08
2023-04-13T05:51:18.785Z,0.70
2023-04-13T05:53:46.903Z,0.90
2023-04-13T05:56:13.934Z,0.88
2023-04-13T05:58:41.039Z,0.90
2023-04-13T06:01:12.341Z,0.77
2023-04-13T06:03:39.599Z,0.70
2023-04-13T06:06:07.085Z,0.70
2023-04-13T06:08:34.783Z,0.60
2023-04-13T06:11:03.186Z,0.82
2023-04-13T06:13:31.851Z,0.75
2023-04-13T06:15:59.205Z,0.70
2023-04-13T06:18:27.269Z,0.80
2023-04-13T06:20:54.617Z,0.95
2023-04-13T06:23:22.373Z,0.90
2023-04-13T06:25:50.089Z,0.70
2023-04-13T06:28:17.479Z,0.85
2023-04-13T06:30:46.238Z,0.80
2023-04-13T06:33:15.248Z,0.80
2023-04-13T06:35:42.401Z,0.70
2023-04-13T06:38:10.324Z,0.80
2023-04-13T06:40:38.123Z,1.00
2023-04-13T06:43:06.221Z,0.70
2023-04-13T06:45:36.167Z,0.60
2023-04-13T06:48:03.430Z,0.60
2023-04-13T06:50:30.660Z,0.60
2023-04-13T06:52:59.457Z,0.80
2023-04-13T06:55:27.718Z,0.50
2023-04-13T06:57:54.764Z,0.60
2023-04-13T07:00:28.970Z,0.52
2023-04-13T07:02:58.443Z,0.70
2023-04-13T07:05:26.851Z,0.80
2023-04-13T07:07:53.887Z,0.77
2023-04-13T07:10:21.088Z,1.10
2023-04-13T07:12:48.281Z,0.65
2023-04-13T07:15:18.194Z,0.73
2023-04-13T07:17:46.195Z,0.60
2023-04-13T07:20:13.707Z,0.80
2023-04-13T07:22:40.873Z,0.70
2023-04-13T07:25:08.759Z,0.65
2023-04-13T07:27:35.843Z,0.70
2023-04-13T07:30:02.917Z,0.75
2023-04-13T07:32:31.358Z,0.68
2023-04-13T07:35:01.939Z,0.60
2023-04-13T07:37:29.938Z,0.73
2023-04-13T07:39:57.099Z,0.60
2023-04-13T07:42:25.276Z,0.55
2023-04-13T07:44:58.354Z,0.68
2023-04-13T07:47:25.501Z,0.50
2023-04-13T07:49:52.698Z,0.73
2023-04-13T07:52:20.670Z,0.82
2023-04-13T07:54:47.749Z,0.70
2023-04-13T07:57:15.039Z,0.60
2023-04-13T07:59:42.046Z,0.77
2023-04-13T08:02:09.302Z,0.85
2023-04-13T08:04:36.533Z,0.50
2023-04-13T08:07:05.057Z,0.60
2023-04-13T08:09:36.427Z,0.60
2023-04-13T08:12:04.176Z,0.70
2023-04-13T08:14:31.319Z,0.73
2023-04-13T08:16:58.556Z,0.80
2023-04-13T08:19:25.725Z,0.95
2023-04-13T08:21:52.876Z,0.75
2023-04-13T08:24:22.764Z,0.70
2023-04-13T08:26:49.913Z,0.70
2023-04-13T08:29:16.952Z,1.05
2023-04-13T08:31:44.185Z,0.93
2023-04-13T08:34:11.829Z,1.10
2023-04-13T08:36:38.883Z,1.30
2023-04-13T08:39:09.627Z,1.15
2023-04-13T08:41:44.278Z,1.20
2023-04-13T08:44:13.651Z,1.50
2023-04-13T08:46:44.891Z,1.30
2023-04-13T08:49:13.398Z,1.00
2023-04-13T08:51:43.661Z,1.23
2023-04-13T08:54:13.030Z,1.25
2023-04-13T08:56:46.616Z,1.50
2023-04-13T09:01:47.669Z,1.38
2023-04-13T09:04:19.994Z,1.42
2023-04-13T09:06:51.146Z,1.40
2023-04-13T09:09:20.845Z,1.42
2023-04-13T09:11:50.137Z,1.40
2023-04-13T09:14:22.318Z,1.20
2023-04-13T09:16:50.663Z,1.40
2023-04-13T09:19:28.808Z,1.33
2023-04-13T09:21:56.196Z,1.50
2023-04-13T09:24:23.842Z,1.58
2023-04-13T09:26:51.375Z,1.92
2023-04-13T09:29:20.257Z,1.55
2023-04-13T09:31:47.894Z,1.48
2023-04-13T09:34:25.963Z,1.58
2023-04-13T09:36:54.924Z,1.55
2023-04-13T09:39:28.279Z,1.60
2023-04-13T09:41:55.959Z,1.77
2023-04-13T09:44:25.046Z,1.85
2023-04-13T09:47:03.221Z,1.35
2023-04-13T09:49:41.380Z,2.20
2023-04-13T09:52:20.161Z,1.70
2023-04-13T09:54:55.091Z,1.98
2023-04-13T09:57:30.397Z,1.70
2023-04-13T10:00:01.622Z,1.70
2023-04-13T10:02:29.456Z,1.98
2023-04-13T10:04:57.701Z,2.33
2023-04-13T10:07:28.977Z,2.50
2023-04-13T10:09:56.321Z,1.90
2023-04-13T10:12:27.015Z,2.10
2023-04-13T10:15:12.996Z,1.92
2023-04-13T10:17:56.855Z,1.67
2023-04-13T10:20:27.241Z,1.75
2023-04-13T10:22:55.398Z,1.85
2023-04-13T10:25:32.720Z,1.70
2023-04-13T10:28:01.246Z,1.13
2023-04-13T10:30:28.660Z,1.38
2023-04-13T10:33:06.845Z,1.20
2023-04-13T10:35:37.251Z,1.13
2023-04-13T10:38:05.269Z,1.73
2023-04-13T10:40:46.376Z,1.73
2023-04-13T10:43:24.536Z,1.98
2023-04-13T10:45:51.842Z,1.80
2023-04-13T10:48:22.361Z,1.92
2023-04-13T10:51:01.374Z,1.90
2023-04-13T10:53:30.747Z,2.03
2023-04-13T10:55:58.200Z,1.95
2023-04-13T10:58:26.707Z,2.30
2023-04-13T11:00:55.090Z,2.72
2023-04-13T11:03:22.849Z,2.53
2023-04-13T11:06:00.595Z,2.28
2023-04-13T11:08:28.300Z,2.53
2023-04-13T11:10:56.801Z,2.40
2023-04-13T11:13:29.887Z,2.17
2023-04-13T11:16:05.236Z,2.65
2023-04-13T11:18:32.661Z,2.47
2023-04-13T11:20:59.858Z,2.22
2023-04-13T11:23:26.935Z,1.90
2023-04-13T11:26:01.409Z,1.63
2023-04-13T11:28:43.819Z,2.03
2023-04-13T11:31:12.084Z,1.85
2023-04-13T11:33:40.747Z,2.40
2023-04-13T11:36:09.894Z,1.95
2023-04-13T11:38:41.758Z,2.00
2023-04-13T11:41:16.264Z,2.17
2023-04-13T11:43:46.545Z,2.20
2023-04-13T11:46:16.325Z,2.10
2023-04-13T11:48:43.942Z,2.50
2023-04-13T11:51:11.759Z,2.03
2023-04-13T11:53:40.496Z,2.33
2023-04-13T11:56:08.226Z,2.70
2023-04-13T11:58:37.731Z,2.35
2023-04-13T12:03:56.938Z,2.60
2023-04-13T12:06:28.107Z,1.90
2023-04-13T12:09:10.025Z,2.67
2023-04-13T12:11:46.034Z,2.72
2023-04-13T12:19:27.286Z,2.17
2023-04-13T12:21:57.109Z,2.47
2023-04-13T12:24:39.389Z,2.22
2023-04-13T12:29:40.721Z,2.53
2023-04-13T12:32:14.580Z,2.30
2023-04-13T12:34:43.250Z,2.10
2023-04-13T12:37:13.572Z,1.95
2023-04-13T12:39:42.379Z,2.10
2023-04-13T12:42:09.609Z,2.47
2023-04-13T12:44:36.793Z,2.28
2023-04-13T12:47:04.071Z,2.47
2023-04-13T12:49:31.238Z,2.20
2023-04-13T12:51:58.700Z,2.33
2023-04-13T12:54:25.892Z,2.38
2023-04-13T12:56:52.928Z,2.10
2023-04-13T12:59:23.153Z,1.92
2023-04-13T13:01:50.684Z,2.00
2023-04-13T13:04:19.777Z,2.00
2023-04-13T13:06:46.911Z,2.10
2023-04-13T13:09:14.190Z,2.25
2023-04-13T13:11:41.533Z,1.83
2023-04-13T13:14:11.043Z,2.08
2023-04-13T13:16:38.372Z,2.35
2023-04-13T13:19:05.723Z,2.25
2023-04-13T13:21:33.598Z,2.00
2023-04-13T13:24:00.726Z,2.10
2023-04-13T13:26:33.130Z,2.20
2023-04-13T13:29:09.732Z,2.40
2023-04-13T13:31:36.855Z,2.20
2023-04-13T13:34:05.177Z,2.22
2023-04-13T13:36:32.155Z,1.65
2023-04-13T13:39:00.095Z,1.73
2023-04-13T13:41:27.423Z,1.98
2023-04-13T13:43:54.582Z,2.38
2023-04-13T13:46:21.730Z,1.63
2023-04-13T13:48:48.758Z,1.95
2023-04-13T13:51:16.129Z,1.85
2023-04-13T13:53:43.268Z,1.70
2023-04-13T13:56:10.353Z,1.90
2023-04-13T13:58:37.361Z,1.70
2023-04-13T14:01:05.602Z,2.13
2023-04-13T14:03:32.960Z,1.98
2023-04-13T14:06:00.217Z,1.90
2023-04-13T14:08:27.229Z,1.90
2023-04-13T14:10:54.486Z,1.98
2023-04-13T14:13:21.526Z,1.67
2023-04-13T14:15:48.643Z,1.70
2023-04-13T14:18:15.821Z,1.90
2023-04-13T14:20:43.594Z,1.92
2023-04-13T14:23:11.047Z,2.10
2023-04-13T14:25:41.396Z,1.83
2023-04-13T14:28:09.422Z,2.03
2023-04-13T14:30:36.763Z,2.10
2023-04-13T14:33:04.501Z,1.70
2023-04-13T14:35:31.667Z,2.40
2023-04-13T14:37:58.772Z,2.10
2023-04-13T14:40:27.788Z,1.95
2023-04-13T14:42:54.871Z,2.15
2023-04-13T14:45:22.244Z,2.13
2023-04-13T14:47:49.533Z,1.85
2023-04-13T14:50:17.459Z,2.03
2023-04-13T14:52:46.410Z,1.58
2023-04-13T14:55:14.639Z,1.92
2023-04-13T14:57:42.288Z,2.30
2023-04-13T15:00:21.613Z,1.83
2023-04-13T15:02:50.987Z,1.60
2023-04-13T15:05:18.994Z,1.80
2023-04-13T15:07:46.414Z,1.40
2023-04-13T15:10:14.491Z,1.40
2023-04-13T15:12:41.548Z,1.95
2023-04-13T15:15:09.133Z,2.45
2023-04-13T15:17:36.597Z,1.92
2023-04-13T15:20:07.729Z,2.15
2023-04-13T15:22:36.334Z,1.90
2023-04-13T15:25:04.016Z,1.80
2023-04-13T15:27:31.168Z,1.52
2023-04-13T15:30:03.757Z,1.45
2023-04-13T15:32:33.878Z,2.08
2023-04-13T15:35:00.978Z,1.60
2023-04-13T15:37:28.062Z,1.80
2023-04-13T15:39:55.417Z,1.88
2023-04-13T15:42:22.800Z,1.98
2023-04-13T15:44:49.942Z,2.42
2023-04-13T15:47:17.037Z,2.10
2023-04-13T15:49:44.061Z,1.80
2023-04-13T15:52:11.502Z,1.67
2023-04-13T15:54:38.493Z,1.83
2023-04-13T15:57:05.639Z,1.85
2023-04-13T15:59:34.834Z,1.90
2023-04-13T16:02:02.599Z,1.80
2023-04-13T16:04:30.187Z,2.10
2023-04-13T16:07:11.809Z,2.08
2023-04-13T16:09:40.532Z,1.38
2023-04-13T16:12:11.196Z,2.10
2023-04-13T16:14:45.532Z,1.75
2023-04-13T16:17:15.084Z,1.75
2023-04-13T16:19:46.951Z,1.90
2023-04-13T16:22:14.238Z,1.75
2023-04-13T16:24:42.188Z,1.77
2023-04-13T16:27:10.329Z,1.70
2023-04-13T16:29:37.550Z,2.75
2023-04-13T16:32:04.669Z,1.70
2023-04-13T16:34:31.723Z,2.20
2023-04-13T16:37:00.173Z,1.67
2023-04-13T16:39:27.613Z,1.98
2023-04-13T16:41:54.629Z,1.50
2023-04-13T16:44:21.746Z,1.35
2023-04-13T16:46:48.778Z,1.50
2023-04-13T16:49:16.006Z,1.58
2023-04-13T16:51:43.143Z,1.15
2023-04-13T16:54:13.892Z,1.52
2023-04-13T16:56:41.121Z,1.15
2023-04-13T16:59:08.209Z,1.30
2023-04-13T17:01:37.239Z,1.30
2023-04-13T17:04:05.954Z,2.20
2023-04-13T17:06:37.141Z,1.50
2023-04-13T17:09:05.463Z,1.67
2023-04-13T17:11:32.751Z,1.77
2023-04-13T17:14:00.222Z,1.50
2023-04-13T17:16:29.637Z,1.48
2023-04-13T17:18:57.042Z,1.40
2023-04-13T17:21:24.304Z,1.45
2023-04-13T17:23:51.354Z,2.13
2023-04-13T17:26:19.040Z,1.70
2023-04-13T17:28:46.124Z,1.60
2023-04-13T17:31:13.486Z,2.38
2023-04-13T17:33:40.541Z,3.72
2023-04-13T17:36:07.655Z,2.72
2023-04-13T17:38:34.813Z,2.63
2023-04-13T17:41:02.402Z,1.70
2023-04-13T17:43:29.463Z,1.65
2023-04-13T17:45:56.796Z,2.05
2023-04-13T17:48:23.985Z,2.03
2023-04-13T17:50:51.789Z,1.85
2023-04-13T17:53:18.811Z,1.83
2023-04-13T17:55:45.874Z,1.77
2023-04-13T17:58:12.997Z,1.90
2023-04-13T18:00:40.112Z,1.77
2023-04-13T18:03:09.382Z,2.05
2023-04-13T18:05:36.782Z,2.72
2023-04-13T18:08:03.935Z,2.25
2023-04-13T18:10:31.202Z,2.15
2023-04-13T18:13:01.888Z,1.90
2023-04-13T18:15:28.913Z,2.40
2023-04-13T18:17:56.062Z,3.13
2023-04-13T18:20:23.260Z,2.92
2023-04-13T18:22:50.391Z,1.98
2023-04-13T18:25:17.522Z,2.30
2023-04-13T18:27:44.616Z,2.38
2023-04-13T18:30:12.792Z,1.70
2023-04-13T18:32:39.920Z,2.03
2023-04-13T18:35:07.264Z,1.75
2023-04-13T18:37:34.311Z,2.10
2023-04-13T18:40:01.521Z,1.58
2023-04-13T18:42:28.657Z,1.70
2023-04-13T18:44:55.883Z,1.50
2023-04-13T18:47:27.065Z,1.70
2023-04-13T18:49:54.225Z,2.70
2023-04-13T18:52:21.311Z,2.25
2023-04-13T18:54:48.392Z,2.55
2023-04-13T18:57:15.377Z,2.53
2023-04-13T18:59:44.354Z,1.83
2023-04-13T19:02:12.200Z,1.95
2023-04-13T19:04:39.572Z,1.77
2023-04-13T19:07:09.015Z,2.47
2023-04-13T19:09:39.422Z,3.30
2023-04-13T19:12:07.383Z,4.22
2023-04-13T19:14:34.493Z,3.78
2023-04-13T19:17:01.521Z,3.55
2023-04-13T19:19:28.698Z,3.05
2023-04-13T19:21:56.525Z,9.40
2023-04-13T19:24:23.843Z,2.47
2023-04-13T19:26:50.925Z,2.72
2023-04-13T19:29:18.205Z,2.13
2023-04-13T19:31:45.890Z,2.60
2023-04-13T19:34:13.302Z,2.30
2023-04-13T19:36:41.145Z,2.80
2023-04-13T19:39:09.174Z,2.28
2023-04-13T19:41:38.409Z,2.03
2023-04-13T19:44:07.982Z,2.85
2023-04-13T19:46:36.547Z,1.90
2023-04-13T19:49:03.696Z,1.58
2023-04-13T19:51:34.861Z,1.52
2023-04-13T19:54:08.981Z,1.63
2023-04-13T19:56:36.570Z,1.77
2023-04-13T19:59:05.246Z,1.60
2023-04-13T20:01:33.733Z,1.65
2023-04-13T20:04:07.068Z,1.42
2023-04-13T20:06:34.495Z,1.98
2023-04-13T20:09:12.302Z,1.20
2023-04-13T20:11:44.110Z,1.80
2023-04-13T20:14:13.853Z,1.65
2023-04-13T20:16:41.222Z,1.45
2023-04-13T20:19:09.676Z,2.00
2023-04-13T20:21:37.433Z,1.38
2023-04-13T20:24:04.790Z,1.67
2023-04-13T20:26:32.170Z,1.60
2023-04-13T20:29:01.251Z,2.08
2023-04-13T20:31:32.892Z,1.67
2023-04-13T20:34:00.642Z,1.90
2023-04-13T20:36:28.310Z,1.90
2023-04-13T20:38:59.747Z,2.05
2023-04-13T20:41:30.053Z,1.90
2023-04-13T20:43:59.071Z,1.92
2023-04-13T20:46:34.416Z,2.22
2023-04-13T20:49:05.669Z,2.03
2023-04-13T20:51:34.144Z,2.35
2023-04-13T20:54:03.075Z,2.97
2023-04-13T20:56:30.466Z,2.40
2023-04-13T20:58:58.187Z,1.95
2023-04-13T21:01:25.546Z,2.08
2023-04-13T21:03:53.145Z,2.00
2023-04-13T21:06:22.947Z,2.40
2023-04-13T21:08:50.014Z,2.28
2023-04-13T21:11:17.102Z,3.00
2023-04-13T21:13:44.262Z,1.90
2023-04-13T21:16:12.345Z,1.50
2023-04-13T21:18:41.709Z,1.70
2023-04-13T21:21:09.084Z,1.70
2023-04-13T21:23:37.451Z,1.95
2023-04-13T21:26:05.440Z,1.98
2023-04-13T21:28:32.650Z,1.95
2023-04-13T21:30:59.991Z,1.70
2023-04-13T21:33:27.068Z,1.77
2023-04-13T21:35:54.136Z,2.22
2023-04-13T21:38:21.244Z,1.70
2023-04-13T21:40:48.285Z,1.70
2023-04-13T21:43:15.669Z,1.92
2023-04-13T21:45:42.840Z,2.03
2023-04-13T21:48:09.914Z,1.77
2023-04-13T21:50:36.985Z,1.75
2023-04-13T21:53:04.014Z,1.50
2023-04-13T21:55:31.016Z,1.40
2023-04-13T21:57:58.135Z,1.35
2023-04-13T22:00:25.576Z,1.50
2023-04-13T22:02:53.832Z,1.40
2023-04-13T22:05:21.079Z,13.80
2023-04-13T22:07:48.054Z,11.27
2023-04-13T22:10:15.160Z,14.70
2023-04-13T22:12:42.330Z,6.00
2023-04-13T22:15:09.915Z,9.70
2023-04-13T22:17:37.194Z,6.28
2023-04-13T22:20:05.133Z,2.22
2023-04-13T22:22:32.120Z,2.72
2023-04-13T22:24:59.253Z,2.03
2023-04-13T22:27:26.490Z,1.77
2023-04-13T22:29:56.514Z,1.70
2023-04-13T22:32:23.699Z,1.73
2023-04-13T22:34:50.872Z,1.70
2023-04-13T22:37:17.937Z,1.50
2023-04-13T22:39:45.501Z,1.55
2023-04-13T22:42:12.562Z,1.48
2023-04-13T22:44:39.562Z,1.50
2023-04-13T22:47:06.596Z,1.77
2023-04-13T22:49:33.617Z,1.67
2023-04-13T22:52:00.683Z,2.10
2023-04-13T22:54:27.716Z,2.10
2023-04-13T22:56:54.776Z,2.40
2023-04-13T22:59:21.825Z,2.78
2023-04-13T23:01:49.050Z,3.88
2023-04-13T23:04:16.571Z,4.32
2023-04-13T23:06:43.796Z,3.03
2023-04-13T23:09:10.976Z,2.13
2023-04-13T23:11:38.157Z,2.35
2023-04-13T23:14:06.834Z,2.10
2023-04-13T23:16:36.787Z,2.20
2023-04-13T23:19:03.898Z,2.00
2023-04-13T23:21:31.392Z,1.58
2023-04-13T23:23:58.406Z,1.60
2023-04-13T23:26:26.138Z,1.75
2023-04-13T23:28:53.446Z,1.70
2023-04-13T23:31:20.527Z,1.35
2023-04-13T23:33:47.608Z,1.77
2023-04-13T23:36:15.005Z,2.85
2023-04-13T23:38:42.049Z,2.40
2023-04-13T23:41:09.103Z,2.47
2023-04-13T23:43:36.128Z,2.58
2023-04-13T23:46:03.247Z,2.78
2023-04-13T23:48:30.773Z,3.78
2023-04-13T23:50:57.786Z,2.10
2023-04-13T23:53:24.907Z,1.80
2023-04-13T23:55:51.937Z,3.45
2023-04-13T23:58:18.978Z,3.40
